createdAt,value
2023-05-19T00:00:02.256Z,51.40
2023-05-19T00:02:39.786Z,50.89
2023-05-19T00:05:07.530Z,50.52
2023-05-19T00:07:34.595Z,50.30
2023-05-19T00:10:01.862Z,50.10
2023-05-19T00:12:29.148Z,50.10
2023-05-19T00:14:56.403Z,50.19
2023-05-19T00:17:23.794Z,50.20
2023-05-19T00:19:50.784Z,50.13
2023-05-19T00:22:17.779Z,50.34
2023-05-19T00:24:44.827Z,50.55
2023-05-19T00:27:11.836Z,50.78
2023-05-19T00:29:39.096Z,50.38
2023-05-19T00:32:06.374Z,50.45
2023-05-19T00:34:33.765Z,50.45
2023-05-19T00:37:00.798Z,50.57
2023-05-19T00:39:27.796Z,50.70
2023-05-19T00:41:54.847Z,50.74
2023-05-19T00:44:21.838Z,50.84
2023-05-19T00:46:48.947Z,50.57
2023-05-19T00:49:16.006Z,50.67
2023-05-19T00:51:43.054Z,50.68
2023-05-19T00:54:10.066Z,50.56
2023-05-19T00:56:37.793Z,50.34
2023-05-19T00:59:04.930Z,50.08
2023-05-19T01:01:32.566Z,50.00
2023-05-19T01:03:59.824Z,50.43
2023-05-19T01:06:27.979Z,50.99
2023-05-19T01:08:55.543Z,50.45
2023-05-19T01:11:22.620Z,50.09
2023-05-19T01:13:49.606Z,50.33
2023-05-19T01:16:37.641Z,50.56
2023-05-19T01:19:30.890Z,50.59
2023-05-19T01:22:14.971Z,50.61
2023-05-19T01:24:57.131Z,50.54
2023-05-19T01:27:27.767Z,50.60
2023-05-19T01:30:13.495Z,50.25
2023-05-19T01:32:41.721Z,50.16
2023-05-19T01:35:09.592Z,50.17
2023-05-19T01:37:37.631Z,50.15
2023-05-19T01:40:05.858Z,49.81
2023-05-19T01:42:37.465Z,49.51
2023-05-19T01:45:11.716Z,49.26
2023-05-19T01:47:41.893Z,48.56
2023-05-19T01:50:09.693Z,48.74
2023-05-19T01:52:36.741Z,48.43
2023-05-19T01:55:03.935Z,48.16
2023-05-19T01:57:36.429Z,48.01
2023-05-19T02:00:09.714Z,48.11
2023-05-19T02:02:48.577Z,48.55
2023-05-19T02:05:28.846Z,48.68
2023-05-19T02:08:12.468Z,48.79
2023-05-19T02:10:41.488Z,49.24
2023-05-19T02:13:08.752Z,48.84
2023-05-19T02:15:39.702Z,49.16
2023-05-19T02:18:06.894Z,49.62
2023-05-19T02:20:34.164Z,50.00
2023-05-19T02:23:01.368Z,50.00
2023-05-19T02:25:28.374Z,50.03
2023-05-19T02:27:55.396Z,50.21
2023-05-19T02:30:22.506Z,50.26
2023-05-19T02:32:49.583Z,50.38
2023-05-19T02:35:16.788Z,50.45
2023-05-19T02:37:44.497Z,50.66
2023-05-19T02:40:11.622Z,50.60
2023-05-19T02:42:38.839Z,50.73
2023-05-19T02:45:06.300Z,50.33
2023-05-19T02:47:36.116Z,50.17
2023-05-19T02:50:05.473Z,50.17
2023-05-19T02:52:32.511Z,50.14
2023-05-19T02:54:59.634Z,50.01
2023-05-19T02:57:27.176Z,50.14
2023-05-19T02:59:54.191Z,50.08
2023-05-19T03:02:21.391Z,49.98
2023-05-19T03:04:48.594Z,49.99
2023-05-19T03:07:15.768Z,49.92
2023-05-19T03:09:42.826Z,49.89
2023-05-19T03:12:09.817Z,49.67
2023-05-19T03:14:39.620Z,49.44
2023-05-19T03:17:10.484Z,49.06
2023-05-19T03:19:37.544Z,49.07
2023-05-19T03:22:05.180Z,48.49
2023-05-19T03:24:33.328Z,48.78
2023-05-19T03:27:00.863Z,48.66
2023-05-19T03:29:27.878Z,48.61
2023-05-19T03:31:54.896Z,48.38
2023-05-19T03:34:22.687Z,47.94
2023-05-19T03:36:50.527Z,47.43
2023-05-19T03:39:17.662Z,47.42
2023-05-19T03:41:45.605Z,47.15
2023-05-19T03:44:12.685Z,47.33
2023-05-19T03:46:39.926Z,47.30
2023-05-19T03:49:06.926Z,47.00
2023-05-19T03:51:56.863Z,46.97
2023-05-19T03:54:34.655Z,46.73
2023-05-19T03:57:02.341Z,46.61
2023-05-19T03:59:30.490Z,46.50
2023-05-19T04:01:58.310Z,46.92
2023-05-19T04:04:26.813Z,46.88
2023-05-19T04:06:53.841Z,47.20
2023-05-19T04:09:21.506Z,47.33
2023-05-19T04:11:48.488Z,47.28
2023-05-19T04:14:16.199Z,46.91
2023-05-19T04:16:43.602Z,46.85
2023-05-19T04:19:10.696Z,46.94
2023-05-19T04:21:37.855Z,46.96
2023-05-19T04:24:06.736Z,47.32
2023-05-19T04:26:34.695Z,47.44
2023-05-19T04:29:04.878Z,46.93
2023-05-19T04:31:34.518Z,46.78
2023-05-19T04:34:02.287Z,46.83
2023-05-19T04:36:29.506Z,46.96
2023-05-19T04:39:02.485Z,47.17
2023-05-19T04:41:29.831Z,47.28
2023-05-19T04:43:57.767Z,47.49
2023-05-19T04:46:26.250Z,48.00
2023-05-19T04:48:55.527Z,47.64
2023-05-19T04:51:22.916Z,47.17
2023-05-19T04:53:50.010Z,47.42
2023-05-19T04:56:17.066Z,46.67
2023-05-19T04:58:44.890Z,46.80
2023-05-19T05:01:14.013Z,47.09
2023-05-19T05:03:41.267Z,46.95
2023-05-19T05:06:09.010Z,47.19
2023-05-19T05:08:37.529Z,47.26
2023-05-19T05:11:04.978Z,47.24
2023-05-19T05:13:32.575Z,47.06
2023-05-19T05:16:01.104Z,47.01
2023-05-19T05:18:28.405Z,46.64
2023-05-19T05:20:55.923Z,46.13
2023-05-19T05:23:24.365Z,44.98
2023-05-19T05:25:51.725Z,43.78
2023-05-19T05:28:18.859Z,43.10
2023-05-19T05:30:46.701Z,42.88
2023-05-19T05:33:14.872Z,42.64
2023-05-19T05:35:42.068Z,42.54
2023-05-19T05:38:11.702Z,42.20
2023-05-19T05:40:39.028Z,42.37
2023-05-19T05:43:06.179Z,42.41
2023-05-19T05:45:35.736Z,42.03
2023-05-19T05:48:03.216Z,41.22
2023-05-19T05:50:30.947Z,41.02
2023-05-19T05:52:58.482Z,40.92
2023-05-19T05:55:26.011Z,41.57
2023-05-19T05:57:53.086Z,41.76
2023-05-19T06:00:21.481Z,42.06
2023-05-19T06:02:52.314Z,42.27
2023-05-19T06:05:19.855Z,42.35
2023-05-19T06:07:47.854Z,42.26
2023-05-19T06:10:19.233Z,41.78
2023-05-19T06:12:46.931Z,41.89
2023-05-19T06:15:14.061Z,41.99
2023-05-19T06:17:51.040Z,41.88
2023-05-19T06:20:18.792Z,41.51
2023-05-19T06:22:45.817Z,41.05
2023-05-19T06:25:14.029Z,41.08
2023-05-19T06:27:41.214Z,40.78
2023-05-19T06:30:09.299Z,40.19
2023-05-19T06:32:43.848Z,39.62
2023-05-19T06:35:11.106Z,39.41
2023-05-19T06:37:38.378Z,39.32
2023-05-19T06:40:06.048Z,38.83
2023-05-19T06:42:33.484Z,38.94
2023-05-19T06:45:22.499Z,38.81
2023-05-19T06:47:50.808Z,38.33
2023-05-19T06:50:18.231Z,38.38
2023-05-19T06:52:47.308Z,38.12
2023-05-19T06:55:14.314Z,37.95
2023-05-19T06:57:41.387Z,38.25
2023-05-19T07:00:14.485Z,38.59
2023-05-19T07:02:44.338Z,38.25
2023-05-19T07:05:11.531Z,36.38
2023-05-19T07:07:38.874Z,33.60
2023-05-19T07:10:08.217Z,32.04
2023-05-19T07:12:35.233Z,31.04
2023-05-19T07:15:02.247Z,29.71
2023-05-19T07:17:29.508Z,28.82
2023-05-19T07:19:56.588Z,27.96
2023-05-19T07:22:24.313Z,27.58
2023-05-19T07:24:51.517Z,27.60
2023-05-19T07:27:18.588Z,27.69
2023-05-19T07:29:45.693Z,27.89
2023-05-19T07:32:12.799Z,27.34
2023-05-19T07:34:40.799Z,27.44
2023-05-19T07:37:07.889Z,27.95
2023-05-19T07:39:35.364Z,28.41
2023-05-19T07:42:02.619Z,28.35
2023-05-19T07:44:31.569Z,27.76
2023-05-19T07:46:58.667Z,27.74
2023-05-19T07:49:25.731Z,28.17
2023-05-19T07:51:53.092Z,28.66
2023-05-19T07:54:20.633Z,28.54
2023-05-19T07:56:48.417Z,28.53
2023-05-19T07:59:16.211Z,28.79
2023-05-19T08:01:43.278Z,28.80
2023-05-19T08:04:12.682Z,28.85
2023-05-19T08:06:40.383Z,29.21
2023-05-19T08:09:07.522Z,29.06
2023-05-19T08:11:34.512Z,29.24
2023-05-19T08:14:01.517Z,29.25
2023-05-19T08:16:28.678Z,28.83
2023-05-19T08:18:55.965Z,29.06
2023-05-19T08:21:23.062Z,29.39
2023-05-19T08:23:50.068Z,29.36
2023-05-19T08:26:17.130Z,29.35
2023-05-19T08:28:44.394Z,29.47
2023-05-19T08:31:11.529Z,29.63
2023-05-19T08:33:38.691Z,29.78
2023-05-19T08:36:06.739Z,29.54
2023-05-19T08:38:33.772Z,29.95
2023-05-19T08:41:00.765Z,30.33
2023-05-19T08:43:27.854Z,30.26
2023-05-19T08:45:55.685Z,29.90
2023-05-19T08:48:22.786Z,29.88
2023-05-19T08:51:18.802Z,30.20
2023-05-19T08:53:48.961Z,30.61
2023-05-19T08:56:18.451Z,30.84
2023-05-19T08:58:46.122Z,31.18
2023-05-19T09:01:14.226Z,31.19
2023-05-19T09:03:41.772Z,31.54
2023-05-19T09:06:09.754Z,31.75
2023-05-19T09:08:37.438Z,31.90
2023-05-19T09:11:04.527Z,32.42
2023-05-19T09:13:31.610Z,33.05
2023-05-19T09:15:58.649Z,33.48
2023-05-19T09:18:29.082Z,33.56
2023-05-19T09:21:00.509Z,33.43
2023-05-19T09:23:32.712Z,33.70
2023-05-19T09:26:04.505Z,33.63
2023-05-19T09:28:33.429Z,34.09
2023-05-19T09:31:07.217Z,33.86
2023-05-19T09:33:35.597Z,33.39
2023-05-19T09:36:03.737Z,32.47
2023-05-19T09:38:30.807Z,31.72
2023-05-19T09:40:59.178Z,31.23
2023-05-19T09:43:30.115Z,30.28
2023-05-19T09:46:03.744Z,30.50
2023-05-19T09:48:30.787Z,31.62
2023-05-19T09:50:58.320Z,32.44
2023-05-19T09:53:25.771Z,32.50
2023-05-19T09:55:57.694Z,32.86
2023-05-19T09:58:25.186Z,33.17
2023-05-19T10:00:53.760Z,33.81
2023-05-19T10:03:22.821Z,34.31
2023-05-19T10:05:50.508Z,33.94
2023-05-19T10:08:18.109Z,33.46
2023-05-19T10:10:48.175Z,32.89
2023-05-19T10:13:15.442Z,32.61
2023-05-19T10:15:57.310Z,32.37
2023-05-19T10:18:26.335Z,31.53
2023-05-19T10:20:53.348Z,32.30
2023-05-19T10:23:20.336Z,32.47
2023-05-19T10:25:47.997Z,32.22
2023-05-19T10:28:16.455Z,31.99
2023-05-19T10:30:45.341Z,32.63
2023-05-19T10:33:16.813Z,32.75
2023-05-19T10:36:26.567Z,32.55
2023-05-19T10:39:24.798Z,32.24
2023-05-19T10:42:17.535Z,32.21
2023-05-19T10:45:15.740Z,32.74
2023-05-19T10:47:42.759Z,32.21
2023-05-19T10:50:10.281Z,30.04
2023-05-19T10:52:38.088Z,28.64
2023-05-19T10:55:08.837Z,27.76
2023-05-19T10:57:36.855Z,26.98
2023-05-19T11:00:11.822Z,26.68
2023-05-19T11:02:42.693Z,26.37
2023-05-19T11:05:15.063Z,25.79
2023-05-19T11:07:55.502Z,25.72
2023-05-19T11:10:25.590Z,25.88
2023-05-19T11:12:52.777Z,25.97
2023-05-19T11:15:19.754Z,25.92
2023-05-19T11:17:48.981Z,25.42
2023-05-19T11:20:28.913Z,25.53
2023-05-19T11:23:11.208Z,25.07
2023-05-19T11:26:04.799Z,25.06
2023-05-19T11:28:31.813Z,25.12
2023-05-19T11:30:59.350Z,24.79
2023-05-19T11:33:29.442Z,24.81
2023-05-19T11:35:59.816Z,24.89
2023-05-19T11:38:28.453Z,24.22
2023-05-19T11:40:56.007Z,24.57
2023-05-19T11:43:24.384Z,24.64
2023-05-19T11:45:52.050Z,24.30
2023-05-19T11:48:21.373Z,23.72
2023-05-19T11:50:48.395Z,23.06
2023-05-19T11:53:16.475Z,22.99
2023-05-19T11:55:46.132Z,22.86
2023-05-19T11:58:13.577Z,23.25
2023-05-19T12:00:41.283Z,23.61
2023-05-19T12:03:09.454Z,23.82
2023-05-19T12:05:41.975Z,23.51
2023-05-19T12:08:11.339Z,23.27
2023-05-19T12:10:38.912Z,23.11
2023-05-19T12:13:09.058Z,23.24
2023-05-19T12:15:36.752Z,22.42
2023-05-19T12:18:04.050Z,22.24
2023-05-19T12:20:32.748Z,22.38
2023-05-19T12:23:00.700Z,22.63
2023-05-19T12:25:28.810Z,22.51
2023-05-19T12:27:59.796Z,23.06
2023-05-19T12:30:30.419Z,23.28
2023-05-19T12:33:00.428Z,23.37
2023-05-19T12:35:29.160Z,23.51
2023-05-19T12:37:56.236Z,27.45
2023-05-19T12:40:23.387Z,29.09
2023-05-19T12:42:53.495Z,29.94
2023-05-19T12:45:21.713Z,30.77
2023-05-19T12:47:49.020Z,30.99
2023-05-19T12:50:16.369Z,31.24
2023-05-19T12:52:47.774Z,32.22
2023-05-19T12:55:16.686Z,32.62
2023-05-19T12:57:44.712Z,31.61
2023-05-19T13:00:16.816Z,30.91
2023-05-19T13:02:56.980Z,28.92
2023-05-19T13:05:24.235Z,28.30
2023-05-19T13:07:55.240Z,27.92
2023-05-19T13:10:22.518Z,28.43
2023-05-19T13:12:49.505Z,28.39
2023-05-19T13:15:16.562Z,28.73
2023-05-19T13:17:43.784Z,29.97
2023-05-19T13:20:12.176Z,31.10
2023-05-19T13:22:39.190Z,31.30
2023-05-19T13:25:07.031Z,31.06
2023-05-19T13:27:34.399Z,31.08
2023-05-19T13:30:01.717Z,30.58
2023-05-19T13:32:28.746Z,30.71
2023-05-19T13:34:55.787Z,31.26
2023-05-19T13:37:23.346Z,30.98
2023-05-19T13:39:50.355Z,29.79
2023-05-19T13:42:17.826Z,30.07
2023-05-19T13:44:48.071Z,28.99
2023-05-19T13:47:15.179Z,28.15
2023-05-19T13:49:42.189Z,27.69
2023-05-19T13:52:09.182Z,27.73
2023-05-19T13:54:36.206Z,27.87
2023-05-19T13:57:03.197Z,26.85
2023-05-19T13:59:30.209Z,24.99
2023-05-19T14:01:57.373Z,24.03
2023-05-19T14:04:24.674Z,23.82
2023-05-19T14:06:51.765Z,24.91
2023-05-19T14:09:18.826Z,27.86
2023-05-19T14:11:47.291Z,30.44
2023-05-19T14:14:14.301Z,28.48
2023-05-19T14:16:41.535Z,28.41
2023-05-19T14:19:08.621Z,29.40
2023-05-19T14:21:36.589Z,29.20
2023-05-19T14:24:03.846Z,29.87
2023-05-19T14:26:31.023Z,30.39
2023-05-19T14:28:58.322Z,30.55
2023-05-19T14:31:25.411Z,29.78
2023-05-19T14:33:52.965Z,30.19
2023-05-19T14:36:19.974Z,29.53
2023-05-19T14:38:46.963Z,29.65
2023-05-19T14:41:14.002Z,29.49
2023-05-19T14:43:42.972Z,29.07
2023-05-19T14:46:10.013Z,29.00
2023-05-19T14:48:37.029Z,29.41
2023-05-19T14:51:04.206Z,29.51
2023-05-19T14:53:32.285Z,29.18
2023-05-19T14:55:59.273Z,30.25
2023-05-19T14:58:28.191Z,31.78
2023-05-19T15:00:57.937Z,32.47
2023-05-19T15:03:25.172Z,33.41
2023-05-19T15:05:52.429Z,34.15
2023-05-19T15:08:19.451Z,35.15
2023-05-19T15:10:50.044Z,34.84
2023-05-19T15:13:19.118Z,34.48
2023-05-19T15:15:46.260Z,34.11
2023-05-19T15:18:16.351Z,33.11
2023-05-19T15:20:43.875Z,33.52
2023-05-19T15:23:11.151Z,33.24
2023-05-19T15:25:38.256Z,33.10
2023-05-19T15:28:05.269Z,34.17
2023-05-19T15:30:32.250Z,35.11
2023-05-19T15:32:59.404Z,35.45
2023-05-19T15:35:26.533Z,36.31
2023-05-19T15:37:53.566Z,37.23
2023-05-19T15:40:20.638Z,38.05
2023-05-19T15:42:47.620Z,38.62
2023-05-19T15:45:14.633Z,39.13
2023-05-19T15:47:41.665Z,39.18
2023-05-19T15:50:09.257Z,39.20
2023-05-19T15:52:36.445Z,39.36
2023-05-19T15:55:03.469Z,39.27
2023-05-19T15:57:30.480Z,39.54
2023-05-19T15:59:57.460Z,39.56
2023-05-19T16:02:24.496Z,39.80
2023-05-19T16:04:51.486Z,39.57
2023-05-19T16:07:18.693Z,39.31
2023-05-19T16:09:45.668Z,38.75
2023-05-19T16:12:12.675Z,38.49
2023-05-19T16:14:39.678Z,38.34
2023-05-19T16:17:11.581Z,38.37
2023-05-19T16:19:38.887Z,38.27
2023-05-19T16:22:05.985Z,38.20
2023-05-19T16:24:32.981Z,38.30
2023-05-19T16:27:00.135Z,38.12
2023-05-19T16:29:27.130Z,38.22
2023-05-19T16:31:54.199Z,38.19
2023-05-19T16:34:21.276Z,37.99
2023-05-19T16:36:48.445Z,37.85
2023-05-19T16:39:15.834Z,37.85
2023-05-19T16:41:42.867Z,37.82
2023-05-19T16:44:11.624Z,37.84
2023-05-19T16:46:38.733Z,37.56
2023-05-19T16:49:06.656Z,37.53
2023-05-19T16:51:33.658Z,37.42
2023-05-19T16:54:00.703Z,37.69
2023-05-19T16:56:27.720Z,37.86
2023-05-19T16:58:54.856Z,37.53
2023-05-19T17:01:21.899Z,37.94
2023-05-19T17:03:48.979Z,39.33
2023-05-19T17:06:16.306Z,41.85
2023-05-19T17:08:43.377Z,43.52
2023-05-19T17:11:10.664Z,44.98
2023-05-19T17:13:37.723Z,46.10
2023-05-19T17:16:04.864Z,44.24
2023-05-19T17:18:31.909Z,42.67
2023-05-19T17:21:03.725Z,42.75
2023-05-19T17:23:32.038Z,44.16
2023-05-19T17:25:59.033Z,44.99
2023-05-19T17:28:26.028Z,45.42
2023-05-19T17:30:53.079Z,46.21
2023-05-19T17:33:20.197Z,46.78
2023-05-19T17:35:47.210Z,46.02
2023-05-19T17:38:14.208Z,45.75
2023-05-19T17:40:42.175Z,45.82
2023-05-19T17:43:09.382Z,46.12
2023-05-19T17:45:36.382Z,46.28
2023-05-19T17:48:03.615Z,45.76
2023-05-19T17:50:30.770Z,45.50
2023-05-19T17:52:58.123Z,45.68
2023-05-19T17:55:30.148Z,45.61
2023-05-19T17:57:57.478Z,45.09
2023-05-19T18:00:25.337Z,44.88
2023-05-19T18:02:52.982Z,44.73
2023-05-19T18:05:20.554Z,44.16
2023-05-19T18:07:47.579Z,43.87
2023-05-19T18:10:15.571Z,43.52
2023-05-19T18:12:42.688Z,43.22
2023-05-19T18:15:10.074Z,43.37
2023-05-19T18:17:37.117Z,43.45
2023-05-19T18:20:04.461Z,43.31
2023-05-19T18:22:31.606Z,42.95
2023-05-19T18:24:58.692Z,42.36
2023-05-19T18:27:27.925Z,41.72
2023-05-19T18:29:54.942Z,41.44
2023-05-19T18:32:21.934Z,42.58
2023-05-19T18:34:48.920Z,44.51
2023-05-19T18:37:16.003Z,45.68
2023-05-19T18:39:43.012Z,46.27
2023-05-19T18:42:10.138Z,45.22
2023-05-19T18:44:37.126Z,44.60
2023-05-19T18:47:04.277Z,45.01
2023-05-19T18:49:32.071Z,45.84
2023-05-19T18:51:59.054Z,44.98
2023-05-19T18:54:26.375Z,44.27
2023-05-19T18:56:54.105Z,43.27
2023-05-19T18:59:21.106Z,43.76
2023-05-19T19:01:48.217Z,44.50
2023-05-19T19:04:16.829Z,45.13
2023-05-19T19:06:44.147Z,45.76
2023-05-19T19:09:11.230Z,45.92
2023-05-19T19:11:38.556Z,46.00
2023-05-19T19:14:05.558Z,46.24
2023-05-19T19:16:32.654Z,46.50
2023-05-19T19:19:00.008Z,47.52
2023-05-19T19:21:27.189Z,48.70
2023-05-19T19:23:56.986Z,49.43
2023-05-19T19:26:25.442Z,50.04
2023-05-19T19:28:52.616Z,51.07
2023-05-19T19:31:19.812Z,51.90
2023-05-19T19:33:46.868Z,51.72
2023-05-19T19:36:13.888Z,51.66
2023-05-19T19:38:40.885Z,51.51
2023-05-19T19:41:07.890Z,51.41
2023-05-19T19:43:35.090Z,50.06
2023-05-19T19:46:02.709Z,49.04
2023-05-19T19:48:29.894Z,48.43
2023-05-19T19:50:57.233Z,47.44
2023-05-19T19:53:24.245Z,46.03
2023-05-19T19:56:01.343Z,45.62
2023-05-19T19:58:28.590Z,45.65
2023-05-19T20:00:59.485Z,46.00
2023-05-19T20:03:27.056Z,46.88
2023-05-19T20:05:55.010Z,47.54
2023-05-19T20:08:22.441Z,48.12
2023-05-19T20:10:49.445Z,48.69
2023-05-19T20:13:16.732Z,48.58
2023-05-19T20:15:44.117Z,48.75
2023-05-19T20:18:11.494Z,49.05
2023-05-19T20:20:41.867Z,49.34
2023-05-19T20:23:08.932Z,49.77
2023-05-19T20:25:53.647Z,50.11
2023-05-19T20:28:26.106Z,50.51
2023-05-19T20:30:53.156Z,50.86
2023-05-19T20:33:20.110Z,51.04
2023-05-19T20:35:47.073Z,51.42
2023-05-19T20:38:14.027Z,52.19
2023-05-19T20:40:41.275Z,52.45
2023-05-19T20:43:08.333Z,52.76
2023-05-19T20:45:35.676Z,53.21
2023-05-19T20:48:03.844Z,53.61
2023-05-19T20:50:30.982Z,53.99
2023-05-19T20:52:58.162Z,54.30
2023-05-19T20:55:25.206Z,54.41
2023-05-19T20:57:52.211Z,54.41
2023-05-19T21:00:19.225Z,54.42
2023-05-19T21:02:46.305Z,54.44
2023-05-19T21:05:13.487Z,54.40
2023-05-19T21:07:40.721Z,54.20
2023-05-19T21:10:08.221Z,53.88
2023-05-19T21:12:35.496Z,53.60
2023-05-19T21:15:03.826Z,53.31
2023-05-19T21:17:30.961Z,53.08
2023-05-19T21:19:59.764Z,53.10
2023-05-19T21:22:27.084Z,53.17
2023-05-19T21:24:54.514Z,53.37
2023-05-19T21:27:21.690Z,53.84
2023-05-19T21:29:55.557Z,54.38
2023-05-19T21:32:22.705Z,54.49
2023-05-19T21:34:49.742Z,54.44
2023-05-19T21:37:17.781Z,54.59
2023-05-19T21:39:45.049Z,54.75
2023-05-19T21:42:12.187Z,54.75
2023-05-19T21:44:39.331Z,54.93
2023-05-19T21:47:06.894Z,55.15
2023-05-19T21:49:33.958Z,54.87
2023-05-19T21:52:00.949Z,54.80
2023-05-19T21:54:27.952Z,54.88
2023-05-19T21:56:55.042Z,54.73
2023-05-19T21:59:24.845Z,54.53
2023-05-19T22:01:52.271Z,54.29
2023-05-19T22:04:20.601Z,54.26
2023-05-19T22:06:47.930Z,54.44
2023-05-19T22:09:15.016Z,54.35
2023-05-19T22:11:42.023Z,54.42
2023-05-19T22:14:09.055Z,54.38
2023-05-19T22:16:36.082Z,54.48
2023-05-19T22:19:03.171Z,54.41
2023-05-19T22:21:30.367Z,54.42
2023-05-19T22:23:57.368Z,54.34
2023-05-19T22:26:24.379Z,54.45
2023-05-19T22:28:51.394Z,54.43
2023-05-19T22:31:18.477Z,54.40
2023-05-19T22:33:45.539Z,54.22
2023-05-19T22:36:13.552Z,54.17
2023-05-19T22:38:40.936Z,54.01
2023-05-19T22:41:07.985Z,53.89
2023-05-19T22:43:34.992Z,53.88
2023-05-19T22:46:02.120Z,53.97
2023-05-19T22:48:29.128Z,53.95
2023-05-19T22:50:56.122Z,54.02
2023-05-19T22:53:23.141Z,54.25
2023-05-19T22:55:50.118Z,54.30
2023-05-19T22:58:17.124Z,54.11
2023-05-19T23:00:44.131Z,54.43
2023-05-19T23:03:11.571Z,54.60
2023-05-19T23:05:38.606Z,54.20
2023-05-19T23:08:06.015Z,53.62
2023-05-19T23:10:32.991Z,52.83
2023-05-19T23:13:00.066Z,52.02
2023-05-19T23:15:27.147Z,51.36
2023-05-19T23:17:54.184Z,50.27
2023-05-19T23:20:21.381Z,49.69
2023-05-19T23:22:48.360Z,49.53
2023-05-19T23:25:15.713Z,49.57
2023-05-19T23:27:42.802Z,49.49
2023-05-19T23:30:09.959Z,49.54
2023-05-19T23:32:37.033Z,49.51
2023-05-19T23:35:14.174Z,49.17
2023-05-19T23:37:41.387Z,48.26
2023-05-19T23:40:08.795Z,47.57
2023-05-19T23:42:36.612Z,47.26
2023-05-19T23:45:04.203Z,47.34
2023-05-19T23:47:31.236Z,47.40
2023-05-19T23:49:58.242Z,47.48
2023-05-19T23:52:25.241Z,47.40
2023-05-19T23:54:52.279Z,46.83
2023-05-19T23:57:19.300Z,46.12
2023-05-19T23:59:46.349Z,45.75
